Time;durP1;ratioP1;P1;durP2;ratioP2;P2;SDS_P1;SDS_P2;PMS_P1;PMS_P2;Temp;Humidity;BMP_temperature;BMP_pressure;BME280_temperature;BME280_humidity;BME280_pressure;Samples;Min_cycle;Max_cycle;Signal;HPM_P1;HPM_P2
2022/11/11 00:01:13;;;;;;;21.13;10.93;;;;;;;6.71;nan;-24004.16;5012203;28;20688;-69
2022/11/11 00:03:39;;;;;;;20.77;11.30;;;;;;;6.57;nan;-24000.31;5012359;28;20234;-69
2022/11/11 00:06:08;;;;;;;22.20;11.17;;;;;;;6.33;nan;-23993.66;5012115;28;20671;-69
2022/11/11 00:08:34;;;;;;;30.17;12.53;;;;;;;6.31;nan;-23992.94;5012196;28;20172;-69
2022/11/11 00:11:05;;;;;;;25.27;12.07;;;;;;;6.72;nan;-24004.56;5011703;28;20180;-69
2022/11/11 00:13:40;;;;;;;26.57;11.60;;;;;;;6.57;nan;-24000.31;5012047;28;20238;-69
2022/11/11 00:16:17;;;;;;;24.40;10.97;;;;;;;6.26;nan;-23991.66;5011761;28;20543;-69
2022/11/11 00:27:15;;;;;;;19.10;10.80;;;;;;;6.38;nan;-23995.06;5011779;28;20286;-69
2022/11/11 00:29:45;;;;;;;22.40;11.03;;;;;;;5.78;nan;-23978.31;5011872;28;20180;-69
2022/11/11 00:32:23;;;;;;;19.27;11.10;;;;;;;6.39;nan;-23995.22;5011724;28;20176;-69
2022/11/11 00:37:34;;;;;;;16.07;9.50;;;;;;;6.10;nan;-23987.13;5012006;28;20210;-69
2022/11/11 00:40:01;;;;;;;21.20;11.30;;;;;;;6.20;nan;-23990.09;5011583;28;20176;-69
2022/11/11 00:42:27;;;;;;;20.40;10.93;;;;;;;5.86;nan;-23980.44;5011641;28;20211;-69
2022/11/11 00:44:53;;;;;;;16.13;9.40;;;;;;;6.13;nan;-23987.97;5011816;28;20191;-69
2022/11/11 00:52:49;;;;;;;17.07;9.80;;;;;;;5.63;nan;-23973.91;5011793;28;20207;-68
2022/11/11 00:55:14;;;;;;;19.73;11.33;;;;;;;5.95;nan;-23983.00;5011584;28;20183;-68
2022/11/11 00:57:40;;;;;;;15.63;9.03;;;;;;;5.91;nan;-23981.72;5010182;28;20176;-69
2022/11/11 01:00:06;;;;;;;18.50;9.97;;;;;;;5.82;nan;-23979.16;5011545;28;20169;-69
2022/11/11 01:02:31;;;;;;;20.33;10.40;;;;;;;5.75;nan;-23977.31;5011112;28;20685;-68
2022/11/11 01:04:57;;;;;;;18.03;8.90;;;;;;;5.91;nan;-23981.72;5011930;28;20191;-69
2022/11/11 01:07:22;;;;;;;22.23;9.13;;;;;;;5.59;nan;-23972.91;5011355;28;20695;-68
2022/11/11 01:09:47;;;;;;;15.23;9.20;;;;;;;5.59;nan;-23972.75;5011040;28;20168;-68
2022/11/11 01:12:13;;;;;;;18.33;9.57;;;;;;;5.78;nan;-23978.31;5011011;28;20182;-68
2022/11/11 01:14:38;;;;;;;18.67;10.53;;;;;;;5.59;nan;-23972.91;5011208;28;20172;-68
2022/11/11 01:17:05;;;;;;;20.53;9.27;;;;;;;5.51;nan;-23970.63;5011237;28;20263;-69
2022/11/11 01:19:30;;;;;;;17.27;10.13;;;;;;;5.55;nan;-23971.63;5011326;28;20226;-68
2022/11/11 01:21:56;;;;;;;16.57;9.57;;;;;;;5.48;nan;-23969.63;5010981;28;20172;-69
2022/11/11 01:24:22;;;;;;;19.50;9.77;;;;;;;5.84;nan;-23979.88;5013644;28;20230;-68
2022/11/11 01:26:47;;;;;;;13.63;8.97;;;;;;;5.87;nan;-23980.72;5015153;28;20219;-68
2022/11/11 01:29:12;;;;;;;16.67;9.47;;;;;;;5.89;nan;-23981.28;5015159;28;20176;-68
2022/11/11 01:31:38;;;;;;;26.73;10.60;;;;;;;3.34;nan;-23909.56;5015139;28;20198;-68
2022/11/11 01:34:03;;;;;;;14.10;9.20;;;;;;;5.79;nan;-23978.44;5015466;28;20179;-68
2022/11/11 01:36:29;;;;;;;20.57;10.07;;;;;;;5.48;nan;-23969.78;5014792;28;20633;-69
2022/11/11 01:38:57;;;;;;;21.93;10.30;;;;;;;5.67;nan;-23975.19;5014878;28;20214;-69
2022/11/11 01:41:32;;;;;;;15.43;10.13;;;;;;;5.59;nan;-23972.75;5014784;28;20283;-69
2022/11/11 01:44:21;;;;;;;14.50;8.50;;;;;;;5.68;nan;-23975.31;5014533;28;20195;-68
2022/11/11 01:46:57;;;;;;;16.67;9.80;;;;;;;5.74;nan;-23977.16;5009788;28;20180;-68
2022/11/11 01:49:28;;;;;;;15.27;8.97;;;;;;;5.75;nan;-23977.31;5014457;28;20168;-68
2022/11/11 01:52:16;;;;;;;15.00;8.73;;;;;;;5.74;nan;-23977.16;5014801;28;20616;-68
2022/11/11 01:54:53;;;;;;;15.40;9.70;;;;;;;5.68;nan;-23975.31;5010549;28;20199;-69
2022/11/11 01:57:29;;;;;;;16.37;9.23;;;;;;;5.53;nan;-23971.19;5014495;28;20175;-68
2022/11/11 02:00:03;;;;;;;17.80;8.03;;;;;;;5.62;nan;-23973.63;5014889;28;20179;-68
2022/11/11 02:02:38;;;;;;;15.17;7.97;;;;;;;5.24;nan;-23963.09;5013711;28;20200;-68
2022/11/11 02:07:54;;;;;;;16.30;9.17;;;;;;;5.65;nan;-23974.59;5014006;28;20179;-68
2022/11/11 02:10:23;;;;;;;16.17;8.93;;;;;;;5.32;nan;-23965.38;5013934;28;20263;-69
2022/11/11 02:15:33;;;;;;;14.07;8.47;;;;;;;5.40;nan;-23967.50;5013457;28;20183;-68
2022/11/11 02:17:59;;;;;;;14.47;8.67;;;;;;;5.21;nan;-23962.25;5012841;28;20172;-68
2022/11/11 02:20:27;;;;;;;16.87;9.07;;;;;;;2.28;nan;-23879.44;5014515;28;20168;-68
2022/11/11 02:23:03;;;;;;;16.23;9.37;;;;;;;5.61;nan;-23973.34;5014089;28;20196;-68
2022/11/11 02:25:30;;;;;;;21.97;10.40;;;;;;;5.44;nan;-23968.63;5014322;28;20171;-68
2022/11/11 02:28:00;;;;;;;17.63;9.10;;;;;;;5.30;nan;-23964.81;5012746;28;20196;-68
2022/11/11 02:30:26;;;;;;;14.73;8.50;;;;;;;5.32;nan;-23965.38;5013682;28;20233;-68
2022/11/11 02:32:53;;;;;;;15.33;8.43;;;;;;;4.88;nan;-23952.84;5013707;28;20188;-68
2022/11/11 02:35:36;;;;;;;23.93;9.27;;;;;;;4.63;nan;-23945.88;5013026;28;20188;-68
2022/11/11 02:38:09;;;;;;;21.90;10.67;;;;;;;4.66;nan;-23946.59;5013842;28;20207;-68
2022/11/11 02:43:30;;;;;;;15.27;9.47;;;;;;;4.28;nan;-23935.91;5013169;28;20678;-68
2022/11/11 02:45:55;;;;;;;20.13;9.60;;;;;;;4.21;nan;-23933.94;5013620;28;20180;-68
2022/11/11 02:48:21;;;;;;;20.27;9.27;;;;;;;4.37;nan;-23938.63;5013373;28;20543;-68
2022/11/11 02:50:46;;;;;;;18.40;9.73;;;;;;;2.43;nan;-23883.75;5013419;28;20176;-68
2022/11/11 02:53:12;;;;;;;20.93;9.57;;;;;;;4.21;nan;-23934.06;5013786;28;20676;-68
2022/11/11 02:55:37;;;;;;;16.00;9.07;;;;;;;4.29;nan;-23936.34;5013110;28;20183;-68
2022/11/11 02:58:03;;;;;;;18.17;9.00;;;;;;;4.49;nan;-23941.75;5013252;28;20640;-68
2022/11/11 03:00:28;;;;;;;19.10;9.30;;;;;;;4.08;nan;-23930.38;5012923;28;20256;-69
2022/11/11 03:02:53;;;;;;;14.27;7.97;;;;;;;4.60;nan;-23945.03;5013204;28;20235;-68
2022/11/11 03:05:19;;;;;;;15.13;8.37;;;;;;;4.77;nan;-23949.72;5013137;28;20180;-67
2022/11/11 03:07:45;;;;;;;21.77;9.23;;;;;;;4.50;nan;-23942.19;5013055;28;20262;-67
2022/11/11 03:10:10;;;;;;;14.50;8.97;;;;;;;4.53;nan;-23942.91;5012827;28;20186;-67
2022/11/11 03:12:36;;;;;;;17.33;9.37;;;;;;;4.72;nan;-23948.31;5013383;28;20242;-68
2022/11/11 03:15:01;;;;;;;17.60;9.23;;;;;;;4.92;nan;-23954.00;5012780;28;20262;-67
2022/11/11 03:17:39;;;;;;;17.73;9.90;;;;;;;4.64;nan;-23946.16;5012926;28;20524;-67
2022/11/11 03:23:00;;;;;;;16.17;9.80;;;;;;;4.98;nan;-23955.69;5012758;28;20226;-69
2022/11/11 03:25:37;;;;;;;21.40;10.20;;;;;;;4.57;nan;-23944.03;5012636;28;20687;-68
2022/11/11 03:28:09;;;;;;;17.70;9.70;;;;;;;4.94;nan;-23954.56;5012700;28;20283;-68
2022/11/11 03:30:36;;;;;;;17.43;8.57;;;;;;;4.52;nan;-23942.59;5012897;28;20266;-67
2022/11/11 03:33:02;;;;;;;10.93;7.47;;;;;;;4.75;nan;-23949.31;5012577;28;20176;-68
2022/11/11 03:35:29;;;;;;;14.13;9.40;;;;;;;4.33;nan;-23937.47;5012630;28;20180;-67
2022/11/11 03:40:38;;;;;;;17.53;9.13;;;;;;;4.92;nan;-23953.84;5012705;28;20219;-67
2022/11/11 03:43:05;;;;;;;23.63;9.80;;;;;;;4.53;nan;-23943.03;5012273;28;20203;-68
2022/11/11 03:45:30;;;;;;;16.97;9.10;;;;;;;4.57;nan;-23944.19;5011685;28;20209;-68
2022/11/11 03:47:56;;;;;;;16.73;8.00;;;;;;;4.98;nan;-23955.69;5012137;28;20307;-68
2022/11/11 03:50:21;;;;;;;17.20;8.33;;;;;;;4.84;nan;-23951.72;5012446;28;20183;-68
2022/11/11 03:52:47;;;;;;;21.10;10.00;;;;;;;4.75;nan;-23949.16;5012414;28;20266;-68
2022/11/11 03:55:13;;;;;;;13.37;8.43;;;;;;;4.83;nan;-23951.56;5012302;28;20691;-68
2022/11/11 03:57:45;;;;;;;16.90;8.83;;;;;;;4.58;nan;-23944.31;5012531;28;20180;-67
2022/11/11 04:00:13;;;;;;;16.40;9.07;;;;;;;4.65;nan;-23946.31;5012196;28;20255;-68
2022/11/11 04:11:13;;;;;;;14.97;8.17;;;;;;;5.07;nan;-23958.25;5012085;28;20178;-68
2022/11/11 04:16:28;;;;;;;14.10;8.43;;;;;;;5.10;nan;-23958.97;5011784;28;20175;-68
2022/11/11 04:21:43;;;;;;;21.10;9.37;;;;;;;5.13;nan;-23959.81;5011874;28;20179;-68
2022/11/11 04:27:00;;;;;;;14.50;8.13;;;;;;;4.98;nan;-23955.56;5016921;28;20250;-68
2022/11/11 04:29:29;;;;;;;20.80;9.17;;;;;;;4.77;nan;-23949.72;5016049;28;20190;-69
2022/11/11 04:34:57;;;;;;;17.13;7.87;;;;;;;4.29;nan;-23936.34;5017751;28;20283;-68
2022/11/11 04:37:24;;;;;;;20.87;9.03;;;;;;;4.43;nan;-23940.34;5016086;28;20180;-68
2022/11/11 04:42:35;;;;;;;25.30;8.97;;;;;;;4.54;nan;-23943.31;5017195;28;20292;-68
2022/11/11 04:47:52;;;;;;;16.33;7.47;;;;;;;4.49;nan;-23941.91;5017059;28;20198;-68
2022/11/11 04:50:17;;;;;;;13.73;7.33;;;;;;;4.22;nan;-23934.34;5017115;28;20246;-68
2022/11/11 04:52:43;;;;;;;16.47;8.20;;;;;;;4.12;nan;-23931.34;5017164;28;20230;-68
2022/11/11 04:57:52;;;;;;;17.90;9.67;;;;;;;4.52;nan;-23942.59;5018136;28;20302;-68
2022/11/11 05:00:18;;;;;;;23.17;9.30;;;;;;;4.42;nan;-23939.91;5020158;28;20191;-69
2022/11/11 05:08:54;;;;;;;16.43;7.50;;;;;;;4.20;nan;-23933.78;5022108;28;20345;-68
2022/11/11 05:10:59;;;;;;;16.00;7.97;;;;;;;4.45;nan;-23940.75;5019781;28;20338;-68
2022/11/11 05:21:52;;;;;;;15.57;8.33;;;;;;;4.58;nan;-23944.47;5018243;28;20330;-68
2022/11/11 05:27:01;;;;;;;14.90;7.87;;;;;;;4.63;nan;-23945.75;5018527;28;20667;-69
2022/11/11 05:29:26;;;;;;;17.07;8.13;;;;;;;4.41;nan;-23939.75;5024626;28;20263;-70
2022/11/11 05:31:52;;;;;;;16.67;8.93;;;;;;;0.12;nan;-23818.41;5022759;28;20190;-68
2022/11/11 05:34:17;;;;;;;19.40;9.40;;;;;;;4.55;nan;-23943.47;5023293;28;20264;-70
2022/11/11 05:36:42;;;;;;;18.37;10.30;;;;;;;4.48;nan;-23941.63;5027468;28;20651;-70
2022/11/11 05:39:08;;;;;;;17.67;8.90;;;;;;;5.02;nan;-23956.84;5025287;28;20171;-68
2022/11/11 05:41:33;;;;;;;14.83;8.97;;;;;;;;;;5025011;28;20239;-67
2022/11/11 05:43:58;;;;;;;19.20;8.77;;;;;;;4.84;nan;-23951.84;5027104;28;20195;-67
2022/11/11 05:46:24;;;;;;;15.07;8.73;;;;;;;5.37;nan;-23966.50;5030943;28;20187;-68
2022/11/11 05:51:33;;;;;;;28.07;9.63;;;;;;;5.32;nan;-23965.38;5019361;28;20191;-67
2022/11/11 05:53:58;;;;;;;23.10;10.30;;;;;;;5.22;nan;-23962.38;5014023;28;20172;-67
2022/11/11 05:56:23;;;;;;;15.80;7.83;;;;;;;5.58;nan;-23972.63;5029011;28;20183;-67
2022/11/11 05:58:49;;;;;;;18.03;11.03;;;;;;;5.61;nan;-23973.47;5018761;28;20592;-66
2022/11/11 06:01:14;;;;;;;26.03;10.30;;;;;;;5.51;nan;-23970.63;5013448;28;20180;-66
2022/11/11 06:03:40;;;;;;;18.47;10.07;;;;;;;5.64;nan;-23974.19;5013583;28;20203;-67
2022/11/11 06:06:05;;;;;;;25.30;11.17;;;;;;;6.16;nan;-23988.97;5018135;28;20191;-67
2022/11/11 06:08:31;;;;;;;15.27;8.90;;;;;;;6.26;nan;-23991.53;5020096;28;20246;-69
2022/11/11 06:10:57;;;;;;;19.93;11.10;;;;;;;6.45;nan;-23996.91;5028758;28;20175;-67
2022/11/11 06:13:22;;;;;;;22.80;9.93;;;;;;;6.33;nan;-23993.50;5032403;28;20210;-67
2022/11/11 06:15:48;;;;;;;17.70;11.00;;;;;;;6.55;nan;-23999.75;5013376;28;20208;-68
2022/11/11 06:18:13;;;;;;;17.57;10.40;;;;;;;6.79;nan;-24006.44;5013444;28;20184;-67
2022/11/11 06:20:39;;;;;;;17.30;9.40;;;;;;;6.67;nan;-24003.16;5013595;28;20156;-68
2022/11/11 06:23:04;;;;;;;26.40;10.60;;;;;;;7.29;nan;-24020.47;5013604;28;20211;-68
2022/11/11 06:28:17;;;;;;;14.60;9.13;;;;;;;7.20;nan;-24017.91;5021840;28;20260;-70
2022/11/11 06:30:43;;;;;;;19.70;10.40;;;;;;;7.62;nan;-24029.81;5014875;28;20647;-68
2022/11/11 06:33:09;;;;;;;19.73;10.80;;;;;;;7.46;nan;-24025.44;5032348;28;20179;-68
2022/11/11 06:35:36;;;;;;;22.20;10.90;;;;;;;7.91;nan;-24038.03;5027307;28;20216;-68
2022/11/11 06:38:03;;;;;;;23.63;10.93;;;;;;;7.93;nan;-24038.47;5013001;28;20237;-68
2022/11/11 06:40:29;;;;;;;21.37;10.53;;;;;;;8.19;nan;-24045.69;5012369;28;20180;-68
2022/11/11 06:42:58;;;;;;;24.63;12.37;;;;;;;8.17;nan;-24045.25;5012362;28;20314;-68
2022/11/11 06:45:24;;;;;;;21.13;10.80;;;;;;;8.39;nan;-24051.34;5012381;28;20636;-67
2022/11/11 06:47:50;;;;;;;15.87;9.17;;;;;;;8.11;nan;-24043.56;5012059;28;20175;-67
2022/11/11 06:50:16;;;;;;;21.40;10.67;;;;;;;8.46;nan;-24053.19;5012192;28;20272;-67
2022/11/11 06:52:41;;;;;;;23.70;11.20;;;;;;;8.43;nan;-24052.63;5011654;28;20184;-67
2022/11/11 06:55:07;;;;;;;19.87;10.20;;;;;;;8.71;nan;-24060.41;5012658;28;20189;-67
2022/11/11 06:57:32;;;;;;;26.73;11.07;;;;;;;9.18;nan;-24073.41;5012145;28;20161;-68
2022/11/11 06:59:57;;;;;;;20.93;10.13;;;;;;;8.83;nan;-24063.66;5011495;28;20242;-68
2022/11/11 07:02:23;;;;;;;29.13;11.40;;;;;;;9.51;nan;-24082.59;5011939;28;20643;-68
2022/11/11 07:04:48;;;;;;;21.42;10.68;;;;;;;9.84;nan;-24091.94;5011821;28;20172;-68
2022/11/11 07:07:14;;;;;;;22.83;10.50;;;;;;;10.16;nan;-24100.84;5011791;28;20169;-68
2022/11/11 07:09:39;;;;;;;23.17;9.93;;;;;;;10.63;nan;-24113.97;5011638;28;20184;-68
2022/11/11 07:12:05;;;;;;;16.05;9.50;;;;;;;10.75;nan;-24117.19;5012069;28;20180;-68
2022/11/11 07:14:31;;;;;;;18.27;9.77;;;;;;;11.35;nan;-24133.97;5012017;28;20251;-68
2022/11/11 07:16:57;;;;;;;19.20;10.02;;;;;;;11.89;nan;-24149.19;5010430;28;20184;-68
2022/11/11 07:19:22;;;;;;;17.80;9.00;;;;;;;12.09;nan;-24154.53;5011873;28;20241;-68
2022/11/11 07:21:48;;;;;;;20.63;9.70;;;;;;;12.46;nan;-24164.97;5010739;28;20176;-68
2022/11/11 07:24:13;;;;;;;21.90;9.95;;;;;;;12.49;nan;-24165.81;5011806;28;20214;-68
2022/11/11 07:26:38;;;;;;;21.83;9.18;;;;;;;12.69;nan;-24171.44;5011723;28;20715;-69
2022/11/11 07:29:04;;;;;;;10.63;6.50;;;;;;;13.37;nan;-24190.13;5011980;28;20168;-68
2022/11/11 07:31:29;;;;;;;9.48;5.38;;;;;;;13.56;nan;-24195.59;5011553;28;20180;-68
2022/11/11 07:33:55;;;;;;;10.32;5.07;;;;;;;14.11;nan;-24210.91;5011389;28;20537;-67
2022/11/11 07:36:20;;;;;;;11.18;5.82;;;;;;;14.20;nan;-24213.16;5011642;28;20230;-67
2022/11/11 07:38:46;;;;;;;10.90;5.15;;;;;;;14.58;nan;-24223.94;5011052;28;20730;-67
2022/11/11 07:41:11;;;;;;;8.15;4.97;;;;;;;14.72;nan;-24227.59;5010765;28;20187;-68
2022/11/11 07:43:37;;;;;;;9.45;5.80;;;;;;;14.74;nan;-24228.16;5014061;28;20241;-68
2022/11/11 07:46:02;;;;;;;11.27;6.07;;;;;;;14.73;nan;-24228.03;5020523;28;20176;-68
2022/11/11 07:48:27;;;;;;;13.45;7.30;;;;;;;14.84;nan;-24230.97;5023258;28;20560;-68
2022/11/11 07:50:56;;;;;;;10.80;5.15;;;;;;;14.68;nan;-24226.63;5031930;28;20236;-67
2022/11/11 07:53:21;;;;;;;14.43;6.93;;;;;;;15.18;nan;-24240.34;5014795;28;20180;-68
2022/11/11 07:55:47;;;;;;;12.30;6.90;;;;;;;15.25;nan;-24242.31;5011346;28;20166;-67
2022/11/11 07:58:13;;;;;;;12.35;6.18;;;;;;;15.11;nan;-24238.53;5011493;28;20651;-67
2022/11/11 08:00:38;;;;;;;13.25;6.28;;;;;;;15.35;nan;-24245.13;5011374;28;20755;-68
2022/11/11 08:03:04;;;;;;;15.88;8.10;;;;;;;15.28;nan;-24243.28;5011065;28;20253;-68
2022/11/11 08:05:29;;;;;;;13.27;6.32;;;;;;;15.33;nan;-24244.56;5010759;28;20164;-67
2022/11/11 08:07:55;;;;;;;15.20;7.10;;;;;;;15.32;nan;-24244.41;5010940;28;20199;-68
2022/11/11 08:10:20;;;;;;;12.23;6.53;;;;;;;15.35;nan;-24245.13;5010860;28;20275;-68
2022/11/11 08:15:30;;;;;;;17.40;7.40;;;;;;;15.61;nan;-24252.25;5011931;28;20207;-67
2022/11/11 08:17:55;;;;;;;13.02;6.15;;;;;;;15.76;nan;-24256.59;5011576;28;20636;-67
2022/11/11 08:20:21;;;;;;;11.10;6.68;;;;;;;15.68;nan;-24254.22;5011446;28;20188;-69
2022/11/11 08:22:46;;;;;;;14.98;5.97;;;;;;;15.75;nan;-24256.19;5011044;28;20231;-68
2022/11/11 08:25:15;;;;;;;11.60;5.65;;;;;;;15.99;nan;-24262.75;5011198;28;20180;-68
2022/11/11 08:27:41;;;;;;;17.95;7.43;;;;;;;15.83;nan;-24258.56;5011510;28;20247;-68
2022/11/11 08:30:07;;;;;;;13.35;6.43;;;;;;;15.63;nan;-24252.94;5011448;28;20277;-68
2022/11/11 08:32:33;;;;;;;10.40;5.55;;;;;;;15.93;nan;-24261.06;5010320;28;20180;-68
2022/11/11 08:34:58;;;;;;;12.48;5.93;;;;;;;;;;5011018;28;20651;-68
2022/11/11 08:37:24;;;;;;;12.75;6.68;;;;;;;15.65;nan;-24253.38;5011124;28;20195;-68
2022/11/11 08:39:51;;;;;;;13.70;6.38;;;;;;;15.92;nan;-24260.94;5011652;28;20202;-68
2022/11/11 08:42:19;;;;;;;12.77;6.05;;;;;;;15.89;nan;-24260.09;5011179;28;20167;-68
2022/11/11 08:44:46;;;;;;;13.38;6.50;;;;;;;15.77;nan;-24256.88;5011152;28;20190;-68
2022/11/11 08:47:12;;;;;;;10.05;5.93;;;;;;;15.78;nan;-24257.00;5011574;28;20172;-68
2022/11/11 08:49:37;;;;;;;14.38;7.03;;;;;;;15.75;nan;-24256.31;5011051;28;20650;-68
2022/11/11 08:52:03;;;;;;;14.27;6.80;;;;;;;15.45;nan;-24247.91;5043073;28;20706;-69
2022/11/11 08:54:28;;;;;;;15.73;6.97;;;;;;;15.45;nan;-24248.06;5011184;28;20176;-71
2022/11/11 08:56:54;;;;;;;15.38;6.72;;;;;;;15.76;nan;-24256.59;5010253;28;20267;-68
2022/11/11 08:59:21;;;;;;;14.90;6.47;;;;;;;15.93;nan;-24261.22;5010560;28;20623;-67
2022/11/11 09:01:46;;;;;;;15.15;6.60;;;;;;;15.77;nan;-24256.72;5011060;28;20184;-67
2022/11/11 09:04:11;;;;;;;13.35;6.68;;;;;;;15.60;nan;-24251.97;5010989;28;20291;-68
2022/11/11 09:06:40;;;;;;;14.95;6.30;;;;;;;15.58;nan;-24251.56;5011180;28;20180;-68
2022/11/11 09:09:05;;;;;;;14.20;6.88;;;;;;;15.67;nan;-24254.06;5011259;28;20250;-67
2022/11/11 09:11:35;;;;;;;10.85;6.30;;;;;;;16.16;nan;-24267.50;5010751;28;20582;-67
2022/11/11 09:14:01;;;;;;;15.55;7.00;;;;;;;16.04;nan;-24264.28;5015882;28;20211;-67
2022/11/11 09:16:26;;;;;;;14.55;6.97;;;;;;;15.67;nan;-24254.06;5016979;28;20242;-68
2022/11/11 09:18:51;;;;;;;18.88;7.28;;;;;;;15.98;nan;-24262.59;5026845;28;20666;-68
2022/11/11 09:21:17;;;;;;;14.15;5.88;;;;;;;15.79;nan;-24257.28;5029645;28;20190;-68
2022/11/11 09:23:42;;;;;;;11.20;5.78;;;;;;;15.98;nan;-24262.59;5011053;28;20532;-68
2022/11/11 09:26:08;;;;;;;16.17;5.20;;;;;;;16.00;nan;-24263.03;5010517;28;20222;-68
2022/11/11 09:28:34;;;;;;;11.00;5.40;;;;;;;16.02;nan;-24263.72;5011009;28;20198;-68
2022/11/11 09:31:00;;;;;;;12.80;5.85;;;;;;;15.73;nan;-24255.75;5010321;28;20176;-67
2022/11/11 09:33:26;;;;;;;11.10;5.93;;;;;;;15.66;nan;-24253.78;5010601;28;20184;-67
2022/11/11 09:35:51;;;;;;;11.02;6.03;;;;;;;15.62;nan;-24252.69;5011113;28;20605;-67
2022/11/11 09:38:16;;;;;;;12.80;6.50;;;;;;;15.64;nan;-24253.09;5011090;28;20534;-67
2022/11/11 09:41:09;;;;;;;9.98;5.20;;;;;;;15.50;nan;-24249.31;5010833;28;20176;-69
2022/11/11 09:43:45;;;;;;;14.88;6.18;;;;;;;15.65;nan;-24253.50;5010214;28;20565;-68
2022/11/11 09:46:13;;;;;;;12.15;5.72;;;;;;;15.68;nan;-24254.34;5013928;28;20160;-68
2022/11/11 09:48:44;;;;;;;10.48;5.75;;;;;;;15.63;nan;-24252.81;5013109;28;20267;-68
2022/11/11 09:51:19;;;;;;;12.98;5.50;;;;;;;15.34;nan;-24244.97;5014213;28;20199;-68
2022/11/11 09:53:59;;;;;;;12.55;5.93;;;;;;;15.14;nan;-24239.38;5013985;28;20163;-68
2022/11/11 09:56:26;;;;;;;13.77;5.78;;;;;;;15.40;nan;-24246.66;5013467;28;20168;-68
2022/11/11 09:59:15;;;;;;;14.27;5.65;;;;;;;15.18;nan;-24240.50;5013701;28;20183;-68
2022/11/11 10:01:45;;;;;;;11.57;5.68;;;;;;;15.50;nan;-24249.31;5013802;28;20176;-69
2022/11/11 10:04:21;;;;;;;10.25;5.45;;;;;;;15.54;nan;-24250.44;5013901;28;20184;-67
2022/11/11 10:06:50;;;;;;;9.00;5.65;;;;;;;15.12;nan;-24238.81;5013381;28;20176;-68
2022/11/11 10:09:23;;;;;;;13.05;6.43;;;;;;;15.33;nan;-24244.56;5013993;28;20168;-68
2022/11/11 10:12:14;;;;;;;9.25;5.20;;;;;;;15.32;nan;-24244.28;5013889;28;20609;-68
2022/11/11 10:14:46;;;;;;;11.95;5.38;;;;;;;15.28;nan;-24243.28;5012590;28;20188;-68
2022/11/11 10:17:27;;;;;;;13.25;4.75;;;;;;;15.22;nan;-24241.59;5013625;28;20192;-68
2022/11/11 10:20:10;;;;;;;10.10;4.80;;;;;;;14.87;nan;-24231.94;5013778;28;20179;-68
2022/11/11 10:22:40;;;;;;;9.38;4.53;;;;;;;14.40;nan;-24218.75;5013604;28;20200;-68
2022/11/11 10:25:07;;;;;;;9.38;4.85;;;;;;;15.22;nan;-24241.47;5013782;28;20247;-69
2022/11/11 10:27:33;;;;;;;9.00;4.53;;;;;;;14.70;nan;-24227.19;5013101;28;20228;-68
2022/11/11 10:30:12;;;;;;;9.25;5.07;;;;;;;14.72;nan;-24227.75;5013453;28;20218;-68
2022/11/11 10:32:37;;;;;;;10.30;4.47;;;;;;;14.79;nan;-24229.56;5013456;28;20179;-69
2022/11/11 10:35:12;;;;;;;10.23;5.05;;;;;;;15.05;nan;-24236.84;5013330;28;20168;-69
2022/11/11 10:37:40;;;;;;;7.88;4.28;;;;;;;14.93;nan;-24233.63;5013114;28;20179;-68
2022/11/11 10:40:25;;;;;;;10.60;4.80;;;;;;;14.72;nan;-24227.75;5012549;28;20738;-70
2022/11/11 10:42:50;;;;;;;9.50;5.15;;;;;;;15.01;nan;-24235.88;5013033;28;20207;-69
2022/11/11 10:45:42;;;;;;;6.93;4.85;;;;;;;15.06;nan;-24237.13;5023792;28;20195;-68
2022/11/11 10:48:19;;;;;;;9.80;4.57;;;;;;;15.09;nan;-24237.97;5021100;28;20199;-69
2022/11/11 10:50:56;;;;;;;8.35;4.88;;;;;;;14.86;nan;-24231.66;5028894;28;20254;-69
2022/11/11 10:53:35;;;;;;;7.97;3.95;;;;;;;15.08;nan;-24237.69;5022583;28;20215;-68
2022/11/11 10:56:12;;;;;;;8.10;4.43;;;;;;;15.16;nan;-24239.94;5014903;28;20210;-68
2022/11/11 10:59:00;;;;;;;6.20;3.88;;;;;;;15.27;nan;-24242.88;5033154;28;20201;-67
2022/11/11 11:01:53;;;;;;;7.32;4.13;;;;;;;14.96;nan;-24234.31;5021185;28;20196;-68
2022/11/11 11:04:39;;;;;;;9.70;4.45;;;;;;;15.16;nan;-24239.94;5012873;28;20214;-67
2022/11/11 11:07:06;;;;;;;8.23;4.75;;;;;;;14.88;nan;-24232.22;5011830;28;20164;-68
2022/11/11 11:10:19;;;;;;;8.23;3.78;;;;;;;14.98;nan;-24235.03;5011840;28;20204;-67
2022/11/11 11:13:02;;;;;;;6.90;3.78;;;;;;;14.65;nan;-24225.78;5007906;28;20199;-67
2022/11/11 11:15:29;;;;;;;7.03;4.25;;;;;;;14.79;nan;-24229.69;5012250;28;20259;-67
2022/11/11 11:18:02;;;;;;;9.20;4.95;;;;;;;14.76;nan;-24228.72;5012430;28;20195;-68
2022/11/11 11:20:27;;;;;;;7.78;4.65;;;;;;;14.80;nan;-24229.97;5012486;28;20168;-69
2022/11/11 11:22:58;;;;;;;9.35;4.53;;;;;;;14.84;nan;-24231.09;5012629;28;20202;-68
2022/11/11 11:25:25;;;;;;;7.32;4.50;;;;;;;14.86;nan;-24231.66;5012432;28;20251;-68
2022/11/11 11:27:52;;;;;;;9.80;4.07;;;;;;;14.69;nan;-24226.75;5012788;28;20183;-67
2022/11/11 11:30:21;;;;;;;8.48;4.95;;;;;;;14.43;nan;-24219.75;5012549;28;20179;-68
2022/11/11 11:33:07;;;;;;;8.70;4.57;;;;;;;14.70;nan;-24227.03;5012562;28;20172;-67
2022/11/11 11:35:42;;;;;;;11.10;5.25;;;;;;;14.68;nan;-24226.47;5011884;28;20180;-68
2022/11/11 11:38:11;;;;;;;8.30;4.35;;;;;;;14.51;nan;-24222.00;5013126;28;20176;-68
2022/11/11 11:40:56;;;;;;;9.02;4.05;;;;;;;14.68;nan;-24226.47;5012825;28;20176;-68
2022/11/11 11:43:46;;;;;;;9.52;4.85;;;;;;;14.43;nan;-24219.75;5012284;28;20217;-68
2022/11/11 11:46:19;;;;;;;8.13;5.05;;;;;;;14.75;nan;-24228.44;5011994;28;20188;-68
2022/11/11 11:49:00;;;;;;;7.90;5.00;;;;;;;14.85;nan;-24231.38;5012455;28;20176;-68
2022/11/11 11:51:40;;;;;;;10.15;5.75;;;;;;;14.85;nan;-24231.25;5012664;28;20167;-67
2022/11/11 11:54:32;;;;;;;11.52;4.60;;;;;;;14.89;nan;-24232.50;5012546;28;20168;-68
2022/11/11 11:57:02;;;;;;;7.63;4.50;;;;;;;14.66;nan;-24225.91;5012645;28;20283;-69
2022/11/11 11:59:34;;;;;;;9.93;5.35;;;;;;;14.92;nan;-24233.34;5010905;28;20180;-68
2022/11/11 12:02:15;;;;;;;9.90;4.93;;;;;;;14.73;nan;-24228.03;5012214;28;20178;-68
2022/11/11 12:04:50;;;;;;;6.13;4.38;;;;;;;15.06;nan;-24237.13;5018918;28;20229;-68
2022/11/11 12:07:37;;;;;;;7.07;4.75;;;;;;;15.16;nan;-24239.78;5031565;28;20167;-67
2022/11/11 12:10:11;;;;;;;11.32;5.13;;;;;;;14.87;nan;-24231.81;5023368;28;20176;-68
2022/11/11 12:12:37;;;;;;;9.57;4.07;;;;;;;15.06;nan;-24237.00;5012041;28;20313;-68
2022/11/11 12:15:14;;;;;;;10.60;5.10;;;;;;;15.02;nan;-24236.16;5010750;28;20271;-68
2022/11/11 12:18:00;;;;;;;10.15;5.00;;;;;;;15.13;nan;-24238.94;5011734;28;20168;-68
2022/11/11 12:20:35;;;;;;;9.90;5.72;;;;;;;14.77;nan;-24229.13;5011779;28;20187;-68
2022/11/11 12:23:03;;;;;;;9.40;4.55;;;;;;;14.91;nan;-24233.06;5011600;28;20222;-68
2022/11/11 12:25:49;;;;;;;14.13;5.70;;;;;;;15.02;nan;-24236.16;5009960;28;20629;-67
2022/11/11 12:28:44;;;;;;;9.38;5.20;;;;;;;14.70;nan;-24227.03;5011491;28;20168;-67
2022/11/11 12:31:28;;;;;;;11.13;5.20;;;;;;;14.86;nan;-24231.53;5011436;28;20172;-68
2022/11/11 12:34:08;;;;;;;8.40;4.70;;;;;;;14.84;nan;-24231.09;5011267;28;20172;-68
2022/11/11 12:36:51;;;;;;;8.90;5.40;;;;;;;14.82;nan;-24230.53;5011639;28;20179;-68
2022/11/11 12:39:40;;;;;;;11.30;5.88;;;;;;;14.74;nan;-24228.31;5011103;28;20574;-67
2022/11/11 12:42:32;;;;;;;8.02;4.38;;;;;;;14.73;nan;-24227.88;5010235;28;20622;-67
2022/11/11 12:45:11;;;;;;;8.73;4.90;;;;;;;14.52;nan;-24222.28;5009347;28;20188;-68
2022/11/11 12:47:43;;;;;;;10.25;5.75;;;;;;;14.78;nan;-24229.41;5011474;28;20266;-68
2022/11/11 12:50:35;;;;;;;10.77;5.35;;;;;;;14.84;nan;-24230.97;5011464;28;20693;-68
2022/11/11 12:53:22;;;;;;;12.35;5.30;;;;;;;15.09;nan;-24237.97;5009998;28;20184;-68
2022/11/11 12:56:13;;;;;;;13.18;6.78;;;;;;;14.70;nan;-24227.19;5011318;28;20647;-68
2022/11/11 12:59:06;;;;;;;18.02;7.30;;;;;;;14.75;nan;-24228.56;5011145;28;20175;-68
2022/11/11 13:01:48;;;;;;;14.07;6.28;;;;;;;14.74;nan;-24228.16;5020095;28;20615;-67
2022/11/11 13:04:48;;;;;;;14.30;7.80;;;;;;;14.62;nan;-24224.94;5022813;28;20634;-67
2022/11/11 13:07:44;;;;;;;14.80;6.32;;;;;;;14.60;nan;-24224.38;5017296;28;20196;-68
2022/11/11 13:10:12;;;;;;;12.90;6.38;;;;;;;14.50;nan;-24221.56;5011562;28;20180;-68
2022/11/11 13:13:02;;;;;;;15.07;7.13;;;;;;;14.34;nan;-24217.06;5011165;28;20176;-68
2022/11/11 13:15:27;;;;;;;15.35;7.95;;;;;;;14.49;nan;-24221.44;5010966;28;20186;-68
2022/11/11 13:17:53;;;;;;;16.13;7.97;;;;;;;14.42;nan;-24219.31;5021812;28;20590;-68